Time;durP1;ratioP1;P1;durP2;ratioP2;P2;SDS_P1;SDS_P2;PMS_P1;PMS_P2;Temp;Humidity;BMP_temperature;BMP_pressure;BME280_temperature;BME280_humidity;BME280_pressure;Samples;Min_cycle;Max_cycle;Signal;HPM_P1;HPM_P2
2022/01/25 00:33:35;;;;;;;22.33;6.87;;;;;;;-2.05;46.49;99754.00;4471865;32;19976;-81
2022/01/25 00:36:06;;;;;;;22.15;7.32;;;;;;;-1.00;44.38;99746.44;4471728;32;20096;-81
2022/01/25 00:38:33;;;;;;;21.70;7.93;;;;;;;-0.74;43.96;99741.31;4471823;32;20097;-81
2022/01/25 00:41:03;;;;;;;20.30;7.00;;;;;;;-0.91;44.17;99733.22;4471519;32;20094;-81
2022/01/25 00:43:31;;;;;;;18.10;6.53;;;;;;;-1.59;45.45;99735.31;4471399;32;20484;-81
2022/01/25 00:46:02;;;;;;;20.08;7.37;;;;;;;-2.12;46.62;99738.59;4471556;32;20097;-81
2022/01/25 00:48:43;;;;;;;20.92;7.12;;;;;;;-1.68;46.05;99731.63;4471699;32;20150;-81
2022/01/25 00:54:09;;;;;;;22.87;6.95;;;;;;;-0.67;43.67;99735.59;4471563;32;20099;-81
2022/01/25 00:56:39;;;;;;;19.52;7.50;;;;;;;-0.96;44.50;99727.13;4471685;32;20486;-81
2022/01/25 00:59:12;;;;;;;21.05;7.18;;;;;;;-1.73;46.88;99726.41;4470458;32;20088;-81
2022/01/25 01:01:39;;;;;;;19.17;6.75;;;;;;;-1.58;47.04;99721.84;4471377;32;20084;-81
2022/01/25 01:04:10;;;;;;;19.77;7.10;;;;;;;-1.79;47.66;99721.16;4471314;32;20100;-81
2022/01/25 01:06:39;;;;;;;20.85;6.85;;;;;;;-1.90;47.94;99719.94;4471526;32;20435;-81
2022/01/25 01:09:10;;;;;;;20.27;6.60;;;;;;;-1.97;47.86;99723.94;4471498;32;20845;-81
2022/01/25 01:11:45;;;;;;;19.90;6.87;;;;;;;-1.79;47.16;99714.44;4470693;32;20111;-81
2022/01/25 01:30:47;;;;;;;19.83;6.90;;;;;;;-1.36;47.52;99699.75;4454156;32;20114;-80
2022/01/25 01:33:50;;;;;;;21.23;6.93;;;;;;;-1.63;48.27;99692.12;4470882;32;20141;-81
2022/01/25 01:36:45;;;;;;;17.00;6.28;;;;;;;-0.99;46.58;99692.44;4470707;32;20102;-81
2022/01/25 01:39:24;;;;;;;22.15;6.55;;;;;;;-1.13;46.52;99675.13;4470860;32;20175;-81
2022/01/25 01:42:10;;;;;;;17.67;6.18;;;;;;;-0.49;45.64;99674.41;4470754;32;20534;-81
2022/01/25 01:47:33;;;;;;;18.87;6.87;;;;;;;-1.29;48.16;99663.66;4470657;32;20523;-81
2022/01/25 01:50:01;;;;;;;;;;;;;;;-0.74;47.21;99661.06;4471136;32;20089;-80
2022/01/25 01:52:29;;;;;;;17.52;6.03;;;;;;;-0.51;46.71;99650.69;4470909;32;20118;-81
2022/01/25 01:54:56;;;;;;;20.55;6.32;;;;;;;-0.47;46.38;99665.16;4469125;32;20099;-81
2022/01/25 01:57:23;;;;;;;18.02;6.93;;;;;;;-0.65;47.10;99660.44;4470724;32;20085;-81
2022/01/25 01:59:49;;;;;;;;;;;;;;;-0.08;45.23;99648.47;4470959;32;20131;-81
2022/01/25 02:02:16;;;;;;;19.15;7.00;;;;;;;-0.27;46.00;99648.81;4470381;32;19965;-81
2022/01/25 02:04:44;;;;;;;20.48;7.28;;;;;;;-0.49;45.88;99642.31;4470554;32;20097;-81
2022/01/25 02:07:10;;;;;;;;;;;;;;;-0.07;45.39;99641.69;4471010;32;20566;-81
2022/01/25 02:09:37;;;;;;;19.62;6.97;;;;;;;0.39;44.08;99627.56;4470385;32;20020;-81
2022/01/25 02:12:05;;;;;;;;;;;;;;;-0.23;45.66;99626.91;4472495;32;20159;-81
2022/01/25 02:14:36;;;;;;;;;;;;;;;-0.47;45.97;99630.53;4472780;32;20009;-81
2022/01/25 02:17:26;;;;;;;17.77;6.15;;;;;;;-1.20;48.20;99623.41;4472955;32;19968;-81
2022/01/25 02:22:58;;;;;;;19.65;6.32;;;;;;;-0.79;48.54;99622.06;4472334;32;20503;-81
2022/01/25 02:25:26;;;;;;;21.55;6.82;;;;;;;-1.41;50.79;99630.38;4472475;32;20115;-81
2022/01/25 02:27:53;;;;;;;17.55;6.80;;;;;;;0.05;46.86;99624.25;4471496;32;20151;-81
2022/01/25 02:30:22;;;;;;;;;;;;;;;0.09;46.96;99627.69;4472555;32;20104;-81
2022/01/25 02:32:49;;;;;;;19.02;6.50;;;;;;;-0.14;47.88;99628.00;4472640;32;20348;-81
2022/01/25 02:35:16;;;;;;;;;;;;;;;-1.02;50.29;99623.94;4472748;32;20148;-81
2022/01/25 02:37:44;;;;;;;20.17;7.25;;;;;;;-1.31;51.49;99628.16;4472364;32;19964;-81
2022/01/25 02:40:17;;;;;;;20.83;7.12;;;;;;;-0.71;49.99;99638.34;4472325;32;20149;-81
2022/01/25 02:42:44;;;;;;;23.40;7.53;;;;;;;0.99;45.21;99622.97;4472374;32;20180;-81
2022/01/25 02:45:15;;;;;;;;;;;;;;;-0.13;47.86;99622.09;4472727;32;20160;-81
2022/01/25 02:50:29;;;;;;;18.27;7.18;;;;;;;0.17;47.36;99619.44;4472163;32;20093;-81
2022/01/25 02:52:59;;;;;;;19.15;7.68;;;;;;;-0.40;49.70;99622.28;4472447;32;20132;-81
2022/01/25 02:55:26;;;;;;;21.27;8.07;;;;;;;-0.57;50.31;99608.28;4472399;32;20153;-81
2022/01/25 02:57:53;;;;;;;20.62;8.13;;;;;;;-0.43;50.03;99612.03;4472177;32;20097;-81
2022/01/25 03:00:20;;;;;;;;;;;;;;;0.02;48.43;99608.09;4472589;32;20088;-81
2022/01/25 03:02:47;;;;;;;20.15;7.32;;;;;;;0.17;48.28;99596.59;4472536;32;19976;-81
2022/01/25 03:05:14;;;;;;;24.95;7.97;;;;;;;0.41;47.65;99587.81;4471918;32;20104;-81
2022/01/25 03:07:43;;;;;;;;;;;;;;;-0.02;48.78;99597.00;4472628;32;20126;-81
2022/01/25 03:10:11;;;;;;;19.83;7.75;;;;;;;-0.23;49.61;99591.38;4472312;32;19990;-80
2022/01/25 03:12:49;;;;;;;21.65;7.85;;;;;;;0.25;48.34;99577.34;4471813;32;20451;-81
2022/01/25 03:17:55;;;;;;;;;;;;;;;-1.32;52.71;99570.75;4472325;32;20101;-81
2022/01/25 03:20:36;;;;;;;22.20;8.18;;;;;;;-1.19;53.26;99570.25;4472198;32;19989;-81
2022/01/25 03:23:17;;;;;;;17.98;7.43;;;;;;;-0.56;51.54;99577.03;4471850;32;20757;-81
2022/01/25 03:25:47;;;;;;;19.75;7.28;;;;;;;-0.23;50.96;99571.09;4471997;32;20081;-81
2022/01/25 03:28:15;;;;;;;23.98;7.68;;;;;;;0.19;49.21;99571.25;4472302;32;20177;-81
2022/01/25 03:30:45;;;;;;;21.90;7.43;;;;;;;0.55;48.27;99571.22;4472181;32;20196;-81
2022/01/25 03:33:13;;;;;;;22.25;8.23;;;;;;;1.11;46.52;99584.22;4471795;32;20088;-81
2022/01/25 03:35:41;;;;;;;19.62;7.50;;;;;;;1.24;45.50;99593.81;4472149;32;20144;-81
2022/01/25 03:38:08;;;;;;;18.37;7.82;;;;;;;0.26;47.21;99585.81;4472132;32;20077;-81
2022/01/25 03:40:38;;;;;;;23.65;7.93;;;;;;;0.67;46.29;99589.28;4471665;32;20133;-81
2022/01/25 03:43:07;;;;;;;23.15;7.35;;;;;;;0.91;45.72;99599.09;4472097;32;20155;-81
2022/01/25 03:45:35;;;;;;;21.55;8.40;;;;;;;0.99;45.54;99591.63;4471652;32;20159;-81
2022/01/25 03:50:40;;;;;;;23.65;8.55;;;;;;;0.35;47.64;99583.50;4472108;32;20144;-81
2022/01/25 03:53:08;;;;;;;23.48;7.65;;;;;;;0.36;47.55;99586.88;4471841;32;20128;-81
2022/01/25 03:55:35;;;;;;;21.62;7.65;;;;;;;-1.63;53.04;99568.13;4472001;32;20088;-81
2022/01/25 03:58:03;;;;;;;21.08;7.47;;;;;;;-0.15;49.78;99565.41;4472091;32;20136;-81
2022/01/25 04:00:35;;;;;;;21.37;7.68;;;;;;;-0.74;52.14;99563.91;4471479;32;20489;-81
2022/01/25 04:05:37;;;;;;;22.40;8.30;;;;;;;-0.15;51.08;99544.25;4470820;32;20123;-81
2022/01/25 04:08:05;;;;;;;23.90;8.23;;;;;;;0.10;50.87;99551.59;4471700;32;20452;-81
2022/01/25 04:10:32;;;;;;;24.02;7.87;;;;;;;0.18;51.28;99554.31;4470684;32;20170;-81
2022/01/25 04:12:59;;;;;;;18.27;7.10;;;;;;;1.00;49.70;99553.53;4471656;32;20144;-81
2022/01/25 04:15:28;;;;;;;19.20;7.80;;;;;;;1.03;49.19;99540.00;4471502;32;20107;-81
2022/01/25 04:18:03;;;;;;;22.80;8.13;;;;;;;1.21;49.24;99550.53;4471866;32;20164;-81
2022/01/25 04:20:34;;;;;;;23.02;8.07;;;;;;;1.30;49.49;99548.16;4471782;32;20111;-81
2022/01/25 04:25:46;;;;;;;22.95;8.23;;;;;;;1.67;47.94;99536.06;4471836;32;20154;-81
2022/01/25 04:28:13;;;;;;;;;;;;;;;1.74;48.33;99531.09;4471727;32;20107;-81
2022/01/25 04:30:40;;;;;;;21.80;8.02;;;;;;;2.03;47.51;99528.16;4471718;32;20020;-81
2022/01/25 04:33:18;;;;;;;;;;;;;;;2.70;46.59;99533.31;4471099;32;20167;-81
2022/01/25 04:35:58;;;;;;;22.58;7.75;;;;;;;2.95;46.24;99531.91;4471563;32;20035;-81
2022/01/25 04:49:31;;;;;;;25.35;8.32;;;;;;;3.58;44.62;99525.75;4471430;32;20082;-81
2022/01/25 04:52:08;;;;;;;20.67;8.45;;;;;;;3.62;44.07;99524.97;4471438;32;20115;-81
2022/01/25 05:00:05;;;;;;;20.98;8.50;;;;;;;3.80;44.17;99514.03;4471532;32;20076;-81
2022/01/25 05:02:48;;;;;;;19.73;8.27;;;;;;;4.85;41.27;99515.47;4471494;32;20461;-81
2022/01/25 05:05:53;;;;;;;18.95;8.02;;;;;;;4.90;41.58;99520.63;4471505;32;20104;-81
2022/01/25 05:08:33;;;;;;;19.62;8.05;;;;;;;4.69;41.83;99515.44;4471479;32;20164;-81
2022/01/25 05:16:07;;;;;;;21.73;7.90;;;;;;;4.11;43.33;99513.41;4471368;32;20191;-81
2022/01/25 05:18:44;;;;;;;19.10;7.85;;;;;;;3.92;43.87;99512.41;4471179;32;20729;-81
2022/01/25 05:23:57;;;;;;;23.87;8.63;;;;;;;3.85;44.22;99503.00;4470771;32;20093;-81
2022/01/25 05:26:26;;;;;;;20.60;8.48;;;;;;;3.42;45.56;99500.09;4471262;32;20755;-81
2022/01/25 05:28:57;;;;;;;19.23;7.32;;;;;;;3.00;46.49;99503.09;4471302;32;20084;-81
2022/01/25 05:31:24;;;;;;;21.45;8.18;;;;;;;3.80;44.52;99498.69;4470725;32;20132;-81
2022/01/25 05:33:51;;;;;;;17.70;7.45;;;;;;;3.24;46.00;99486.31;4470960;32;20512;-81
2022/01/25 05:36:28;;;;;;;16.25;6.53;;;;;;;3.89;44.65;99480.91;4471149;32;20149;-81
2022/01/25 05:39:01;;;;;;;21.77;7.80;;;;;;;3.06;46.98;99487.84;4470801;32;20084;-81
2022/01/25 05:41:31;;;;;;;19.60;7.12;;;;;;;4.12;44.73;99484.44;4470937;32;20089;-81
2022/01/25 05:46:44;;;;;;;16.42;7.03;;;;;;;4.28;45.03;99482.84;4472804;32;20153;-81
2022/01/25 05:49:11;;;;;;;18.27;6.93;;;;;;;3.49;47.64;99483.13;4473087;32;20080;-81
2022/01/25 05:51:38;;;;;;;16.42;5.82;;;;;;;4.07;47.15;99478.47;4472768;32;20120;-81
2022/01/25 05:54:08;;;;;;;15.93;6.10;;;;;;;3.66;48.63;99473.06;4472524;32;20111;-81
2022/01/25 05:56:37;;;;;;;18.95;6.65;;;;;;;3.51;49.86;99471.28;4472962;32;20157;-81
2022/01/25 05:59:04;;;;;;;18.25;6.22;;;;;;;3.61;49.13;99467.06;4472597;32;20124;-81
2022/01/25 06:01:32;;;;;;;;;;;;;;;4.15;47.98;99461.50;4472862;32;20084;-81
2022/01/25 06:03:59;;;;;;;17.05;5.43;;;;;;;4.19;47.56;99465.75;4472952;32;19976;-81
2022/01/25 06:06:28;;;;;;;;;;;;;;;4.10;48.25;99459.75;4472898;32;20462;-81
2022/01/25 06:08:56;;;;;;;18.27;6.22;;;;;;;3.40;49.99;99458.41;4472896;32;20027;-81
2022/01/25 06:11:23;;;;;;;17.50;5.85;;;;;;;3.76;50.48;99455.28;4472407;32;20069;-81
2022/01/25 06:13:51;;;;;;;17.25;6.28;;;;;;;3.55;51.19;99449.16;4472379;32;20477;-81
2022/01/25 06:16:19;;;;;;;17.50;6.18;;;;;;;3.21;53.16;99458.25;4472710;32;20417;-81
2022/01/25 06:18:46;;;;;;;15.52;5.95;;;;;;;3.55;52.40;99462.78;4471562;32;20084;-81
2022/01/25 06:21:12;;;;;;;;;;;;;;;4.78;48.46;99459.19;4472686;32;20156;-81
2022/01/25 06:23:42;;;;;;;15.57;6.03;;;;;;;4.48;49.26;99457.41;4471620;32;19985;-81
2022/01/25 06:26:09;;;;;;;17.55;7.07;;;;;;;4.78;48.18;99457.47;4472699;32;20157;-81
2022/01/25 06:28:36;;;;;;;16.33;6.37;;;;;;;4.58;48.86;99461.69;4472351;32;20081;-81
2022/01/25 06:31:03;;;;;;;;;;;;;;;4.79;48.48;99466.87;4472747;32;20081;-81
2022/01/25 06:33:30;;;;;;;21.70;8.02;;;;;;;4.62;48.19;99469.38;4472671;32;19976;-81
2022/01/25 06:35:57;;;;;;;22.98;8.68;;;;;;;5.08;45.97;99474.59;4472256;32;20092;-81
2022/01/25 06:38:29;;;;;;;28.50;10.68;;;;;;;5.08;45.69;99471.19;4472600;32;20119;-81
2022/01/25 06:40:56;;;;;;;22.25;10.40;;;;;;;4.71;46.67;99476.22;4472202;32;20141;-81
2022/01/25 06:43:23;;;;;;;25.08;9.88;;;;;;;4.58;45.97;99483.00;4472646;32;20132;-81
2022/01/25 06:45:56;;;;;;;23.85;9.02;;;;;;;5.76;42.91;99480.66;4472461;32;20101;-81
2022/01/25 06:48:23;;;;;;;23.48;9.32;;;;;;;5.23;44.17;99469.53;4472323;32;20099;-81
2022/01/25 06:50:50;;;;;;;;;;;;;;;4.66;45.65;99475.34;4472690;32;20136;-81
2022/01/25 06:53:17;;;;;;;21.40;9.10;;;;;;;4.83;45.78;99478.81;4472538;32;19981;-81
2022/01/25 06:55:44;;;;;;;22.62;8.77;;;;;;;4.73;45.53;99479.62;4471602;32;20119;-81
2022/01/25 06:58:10;;;;;;;;;;;;;;;3.83;47.69;99468.97;4472461;32;20489;-81
2022/01/25 07:00:40;;;;;;;23.77;8.80;;;;;;;3.99;47.27;99483.53;4472323;32;20307;-80
2022/01/25 07:03:07;;;;;;;22.83;8.73;;;;;;;3.58;47.78;99484.91;4472040;32;20089;-82
2022/01/25 07:05:35;;;;;;;22.95;8.10;;;;;;;2.43;51.29;99470.13;4472400;32;20101;-80
2022/01/25 07:08:02;;;;;;;22.55;9.45;;;;;;;2.84;50.51;99479.09;4472474;32;20446;-79
2022/01/25 07:10:32;;;;;;;21.83;8.02;;;;;;;2.64;50.42;99470.38;4471907;32;20180;-79
2022/01/25 07:12:59;;;;;;;24.85;9.27;;;;;;;2.98;50.03;99470.75;4472047;32;20097;-79
2022/01/25 07:15:25;;;;;;;;;;;;;;;3.08;49.67;99470.84;4472252;32;20148;-80
2022/01/25 07:17:52;;;;;;;20.52;8.27;;;;;;;3.05;50.02;99468.28;4471489;32;20032;-80
2022/01/25 07:20:19;;;;;;;;;;;;;;;2.44;51.67;99459.94;4472263;32;20092;-80
2022/01/25 07:22:47;;;;;;;17.80;7.35;;;;;;;3.28;50.07;99455.75;4472410;32;19994;-80
2022/01/25 07:25:14;;;;;;;19.23;7.50;;;;;;;3.08;50.88;99457.25;4455768;32;20123;-80
2022/01/25 07:27:41;;;;;;;;;;;;;;;3.10;50.62;99451.34;4470787;32;20168;-80
2022/01/25 07:30:08;;;;;;;20.42;6.45;;;;;;;2.85;52.06;99447.69;4471563;32;19983;-81
2022/01/25 07:32:35;;;;;;;18.67;7.93;;;;;;;2.78;52.85;99453.56;4472129;32;20161;-81
2022/01/25 07:35:05;;;;;;;18.42;7.07;;;;;;;2.72;53.42;99458.59;4471943;32;20588;-81
2022/01/25 07:37:41;;;;;;;;;;;;;;;2.78;53.93;99468.00;4471752;32;20098;-81
2022/01/25 07:40:12;;;;;;;17.98;6.80;;;;;;;2.89;53.77;99462.19;4471962;32;19999;-81
2022/01/25 07:42:40;;;;;;;17.92;6.50;;;;;;;3.09;54.36;99454.75;4472025;32;20096;-81
2022/01/25 07:45:21;;;;;;;17.50;6.32;;;;;;;3.32;53.54;99446.44;4471643;32;20144;-80
2022/01/25 07:47:50;;;;;;;19.58;7.80;;;;;;;2.89;55.28;99449.44;4470963;32;20103;-81
2022/01/25 07:50:22;;;;;;;18.30;7.00;;;;;;;3.47;54.39;99444.00;4471904;32;20433;-81
2022/01/25 07:52:49;;;;;;;17.85;7.25;;;;;;;3.68;53.73;99444.16;4469534;32;20097;-81
2022/01/25 07:55:16;;;;;;;;;;;;;;;3.83;53.46;99451.09;4472138;32;20093;-81
2022/01/25 07:57:43;;;;;;;18.08;7.22;;;;;;;4.21;52.58;99455.56;4471331;32;19988;-81
2022/01/25 08:00:11;;;;;;;18.87;7.15;;;;;;;4.08;52.88;99459.75;4469256;32;20148;-81
2022/01/25 08:02:40;;;;;;;16.58;6.95;;;;;;;4.48;51.59;99448.03;4468198;32;20105;-81
2022/01/25 08:05:30;;;;;;;19.10;7.65;;;;;;;4.40;51.96;99448.84;4420032;32;20124;-81
2022/01/25 08:08:20;;;;;;;17.83;6.90;;;;;;;4.21;51.83;99446.19;4409829;32;20424;-82
2022/01/25 08:11:11;;;;;;;20.62;7.50;;;;;;;4.51;51.18;99442.06;4405883;32;20149;-81
2022/01/25 08:13:50;;;;;;;22.60;8.00;;;;;;;4.49;51.38;99443.75;4421663;32;20117;-82
2022/01/25 08:16:34;;;;;;;16.62;7.50;;;;;;;4.89;50.38;99437.03;4421470;32;20129;-82
2022/01/25 08:19:09;;;;;;;21.58;8.75;;;;;;;5.05;50.48;99433.69;4423077;32;20479;-82
2022/01/25 08:21:56;;;;;;;22.03;8.50;;;;;;;5.44;49.47;99435.41;4361937;32;20115;-82
2022/01/25 08:24:37;;;;;;;21.87;8.20;;;;;;;5.09;50.14;99435.38;4360852;32;20165;-81
2022/01/25 08:27:28;;;;;;;20.83;8.13;;;;;;;5.48;50.01;99441.38;4351075;32;20414;-80
2022/01/25 08:30:09;;;;;;;18.12;7.82;;;;;;;6.03;48.58;99444.75;4332650;33;20178;-82
2022/01/25 08:32:51;;;;;;;20.90;8.15;;;;;;;6.77;47.06;99436.78;4320636;33;20439;-82
2022/01/25 08:35:32;;;;;;;23.60;8.98;;;;;;;6.77;46.68;99429.94;4324971;33;20130;-82
2022/01/25 08:38:22;;;;;;;25.10;9.70;;;;;;;6.43;47.00;99425.84;4331451;33;20092;-82
2022/01/25 08:40:49;;;;;;;24.00;9.18;;;;;;;6.32;48.44;99423.34;4332382;33;20125;-80
2022/01/25 08:43:26;;;;;;;20.98;8.50;;;;;;;6.97;46.80;99428.13;4377532;32;20103;-83
2022/01/25 08:46:11;;;;;;;22.95;9.43;;;;;;;7.28;45.48;99435.63;4377390;32;20114;-82
2022/01/25 08:48:45;;;;;;;21.75;8.73;;;;;;;7.60;44.89;99431.94;4377119;32;20106;-82
2022/01/25 08:51:32;;;;;;;20.92;9.20;;;;;;;8.03;43.94;99434.97;4363815;32;20114;-81
2022/01/25 08:54:16;;;;;;;21.25;9.25;;;;;;;7.70;44.90;99426.72;4376861;32;20083;-80
2022/01/25 08:57:01;;;;;;;21.65;8.88;;;;;;;8.16;43.97;99418.53;4376828;32;20115;-81
2022/01/25 08:59:45;;;;;;;21.95;9.50;;;;;;;8.33;43.74;99424.34;4411423;32;20101;-81
2022/01/25 09:02:12;;;;;;;25.55;10.18;;;;;;;8.53;42.92;99416.41;4422079;32;20176;-80
2022/01/25 09:04:45;;;;;;;22.00;9.65;;;;;;;9.13;40.61;99415.56;4422653;32;20158;-81
2022/01/25 09:07:11;;;;;;;19.87;9.27;;;;;;;8.30;42.78;99421.81;4428849;32;20181;-80
2022/01/25 09:09:40;;;;;;;25.27;11.00;;;;;;;7.91;43.79;99422.22;4437708;32;20173;-80
2022/01/25 09:12:07;;;;;;;23.48;9.95;;;;;;;8.57;42.30;99423.22;4437767;32;20436;-81
2022/01/25 09:14:37;;;;;;;22.60;10.10;;;;;;;8.35;43.27;99422.63;4437766;32;20153;-79
2022/01/25 09:17:07;;;;;;;23.40;10.65;;;;;;;7.54;44.87;99413.13;4424973;32;20109;-80
2022/01/25 09:19:41;;;;;;;22.27;10.15;;;;;;;7.94;44.53;99422.19;4437390;32;20129;-80
2022/01/25 09:22:08;;;;;;;23.62;10.40;;;;;;;7.19;46.46;99426.25;4437850;32;20116;-80
2022/01/25 09:24:37;;;;;;;26.10;10.90;;;;;;;7.34;45.50;99415.03;4437433;32;20711;-80
2022/01/25 09:27:07;;;;;;;25.52;10.63;;;;;;;7.25;45.41;99407.41;4437738;32;20137;-80
2022/01/25 09:29:35;;;;;;;23.60;9.68;;;;;;;7.38;44.81;99410.72;4439566;32;20127;-80
2022/01/25 09:32:05;;;;;;;21.48;9.38;;;;;;;7.25;45.10;99409.97;4470826;32;20151;-79
2022/01/25 09:34:32;;;;;;;24.60;9.90;;;;;;;6.55;47.16;99406.13;4469695;32;20526;-80
2022/01/25 09:36:59;;;;;;;23.90;10.13;;;;;;;7.23;46.40;99419.38;4470541;32;20093;-80
2022/01/25 09:39:26;;;;;;;21.95;10.38;;;;;;;7.13;46.21;99421.19;4470858;32;20589;-81
2022/01/25 09:41:53;;;;;;;;;;;;;;;7.93;44.29;99423.91;4470944;32;20145;-81
2022/01/25 09:44:20;;;;;;;19.95;9.18;;;;;;;8.56;42.48;99430.94;4470573;32;19977;-80
2022/01/25 09:46:47;;;;;;;22.27;9.05;;;;;;;8.56;42.62;99438.66;4470769;32;20089;-80
2022/01/25 09:49:17;;;;;;;23.08;10.13;;;;;;;8.51;42.86;99431.03;4470742;32;20097;-80
2022/01/25 09:51:44;;;;;;;21.23;9.43;;;;;;;8.54;42.74;99430.97;4470204;32;20107;-80
2022/01/25 09:54:12;;;;;;;22.92;9.98;;;;;;;6.85;45.81;99433.34;4469412;32;20462;-81
2022/01/25 09:56:39;;;;;;;22.15;9.52;;;;;;;7.44;45.60;99434.66;4469316;32;20105;-81
2022/01/25 09:59:06;;;;;;;22.50;10.05;;;;;;;7.43;45.33;99438.06;4470341;32;20110;-81
2022/01/25 10:01:37;;;;;;;25.70;10.77;;;;;;;8.80;42.37;99437.50;4470351;32;20152;-81
2022/01/25 10:04:29;;;;;;;21.62;9.48;;;;;;;8.48;42.64;99430.19;4470550;32;20087;-82
2022/01/25 10:07:04;;;;;;;21.98;8.90;;;;;;;8.87;42.10;99423.69;4470595;32;20093;-80
2022/01/25 10:09:32;;;;;;;22.25;10.02;;;;;;;9.23;40.99;99411.97;4470498;32;20439;-80
2022/01/25 10:12:20;;;;;;;23.87;9.70;;;;;;;9.45;40.53;99415.91;4469695;32;20240;-80
2022/01/25 10:15:08;;;;;;;24.52;10.65;;;;;;;7.82;44.80;99408.59;4470308;32;20101;-80
2022/01/25 10:17:48;;;;;;;21.80;9.65;;;;;;;7.73;44.93;99408.69;4470257;32;20154;-81
2022/01/25 10:20:29;;;;;;;21.23;10.45;;;;;;;7.56;45.79;99397.75;4469841;32;20085;-81
2022/01/25 10:22:59;;;;;;;23.02;10.23;;;;;;;8.29;43.89;99401.22;4470270;32;20085;-81
2022/01/25 10:25:36;;;;;;;25.92;10.45;;;;;;;7.98;44.92;99390.47;4470021;32;20140;-80
2022/01/25 10:28:11;;;;;;;19.60;8.88;;;;;;;7.87;45.25;99393.16;4470390;32;20144;-81
2022/01/25 10:30:45;;;;;;;20.67;9.07;;;;;;;8.76;43.38;99387.78;4470189;32;20423;-80
2022/01/25 10:33:39;;;;;;;21.35;9.35;;;;;;;9.65;41.08;99376.06;4472095;32;20150;-80
2022/01/25 10:36:29;;;;;;;21.05;9.30;;;;;;;10.14;40.22;99374.28;4472309;32;20438;-81
2022/01/25 10:38:56;;;;;;;25.33;10.05;;;;;;;9.74;41.30;99368.19;4472406;32;20133;-80
2022/01/25 10:41:25;;;;;;;34.40;11.38;;;;;;;10.25;40.20;99366.34;4471561;32;20114;-81
2022/01/25 10:43:54;;;;;;;23.38;10.35;;;;;;;9.11;42.91;99353.78;4472254;32;20468;-80
2022/01/25 10:46:30;;;;;;;25.42;9.80;;;;;;;9.75;41.77;99357.84;4471005;32;20089;-80
2022/01/25 10:49:06;;;;;;;21.45;10.13;;;;;;;9.27;42.67;99355.25;4471241;32;20154;-81
2022/01/25 10:51:42;;;;;;;24.60;9.57;;;;;;;9.36;42.67;99358.53;4472248;32;20104;-81
2022/01/25 10:54:23;;;;;;;24.58;10.82;;;;;;;9.39;42.29;99350.78;4472710;32;20057;-81
2022/01/25 10:56:56;;;;;;;20.83;8.75;;;;;;;9.08;43.37;99347.84;4473800;32;20156;-81
2022/01/25 10:59:29;;;;;;;22.85;10.38;;;;;;;8.31;45.54;99345.50;4473659;32;20101;-81
2022/01/25 11:01:58;;;;;;;24.02;10.68;;;;;;;8.58;45.08;99352.03;4472655;32;20088;-81
2022/01/25 11:04:34;;;;;;;22.27;9.07;;;;;;;8.30;46.24;99356.66;4472975;32;20099;-80
2022/01/25 11:07:05;;;;;;;22.77;9.10;;;;;;;8.16;47.30;99353.41;4473451;32;20699;-81
2022/01/25 11:09:38;;;;;;;21.25;8.52;;;;;;;8.23;47.60;99348.16;4474772;32;20093;-81
2022/01/25 11:12:07;;;;;;;22.60;9.00;;;;;;;8.22;47.07;99350.78;4473733;32;20468;-81
2022/01/25 11:14:50;;;;;;;23.48;9.73;;;;;;;7.94;48.00;99352.81;4471805;32;20152;-81
2022/01/25 11:17:21;;;;;;;21.83;9.57;;;;;;;8.09;47.75;99347.50;4473361;32;20077;-81
2022/01/25 11:19:49;;;;;;;23.73;10.15;;;;;;;8.08;47.63;99346.66;4472547;32;20100;-81
2022/01/25 11:22:19;;;;;;;24.35;10.40;;;;;;;7.70;48.53;99356.50;4472631;32;20114;-81
2022/01/25 11:24:55;;;;;;;27.50;11.05;;;;;;;8.49;46.67;99357.28;4472970;32;20128;-81
2022/01/25 11:27:25;;;;;;;29.17;12.95;;;;;;;8.75;45.67;99347.50;4472479;32;20459;-81
2022/01/25 11:29:56;;;;;;;28.87;12.25;;;;;;;7.44;47.99;99346.47;4471830;32;20105;-81
2022/01/25 11:32:25;;;;;;;29.45;13.07;;;;;;;7.30;48.41;99335.47;4472034;32;20151;-82
2022/01/25 11:34:55;;;;;;;30.12;13.45;;;;;;;7.27;48.93;99335.50;4470835;32;20168;-81
2022/01/25 11:37:34;;;;;;;31.98;13.40;;;;;;;6.90;50.26;99341.78;4471809;32;20348;-82
2022/01/25 11:40:04;;;;;;;28.85;12.45;;;;;;;6.53;51.40;99336.06;4472492;32;20101;-81
2022/01/25 11:42:36;;;;;;;31.23;13.68;;;;;;;6.41;51.50;99345.53;4470941;32;20122;-82
2022/01/25 11:45:06;;;;;;;26.60;11.70;;;;;;;6.56;51.90;99335.19;4472484;32;20097;-81
2022/01/25 11:47:37;;;;;;;29.25;12.68;;;;;;;7.12;49.61;99333.91;4472521;32;20080;-81
2022/01/25 11:50:09;;;;;;;32.22;13.32;;;;;;;7.45;49.05;99337.91;4471840;32;20089;-81
2022/01/25 11:52:37;;;;;;;26.25;12.30;;;;;;;7.98;47.39;99342.50;4472617;32;20100;-81
2022/01/25 11:55:25;;;;;;;29.25;13.68;;;;;;;8.01;47.15;99332.16;4471096;32;20097;-82
2022/01/25 11:57:57;;;;;;;32.65;14.10;;;;;;;6.77;50.00;99334.19;4470702;32;20118;-81
2022/01/25 12:00:44;;;;;;;30.10;13.02;;;;;;;7.74;47.63;99330.75;4472208;32;20120;-82
2022/01/25 12:03:40;;;;;;;27.52;13.18;;;;;;;7.06;50.24;99326.28;4471976;32;20154;-81
2022/01/25 12:06:20;;;;;;;27.98;12.07;;;;;;;8.42;46.19;99324.81;4471008;32;20111;-81
2022/01/25 12:09:06;;;;;;;28.40;12.13;;;;;;;8.17;46.69;99325.09;4471820;32;20103;-80
2022/01/25 12:11:49;;;;;;;27.65;12.65;;;;;;;7.51;47.93;99313.00;4471890;32;20454;-82
2022/01/25 12:14:18;;;;;;;30.05;13.18;;;;;;;6.77;50.13;99318.78;4472001;32;20148;-82
2022/01/25 12:16:53;;;;;;;29.40;12.68;;;;;;;6.88;50.88;99307.59;4471982;32;20112;-83
2022/01/25 12:19:45;;;;;;;32.28;13.70;;;;;;;6.76;50.90;99302.56;4471651;32;20378;-81
2022/01/25 12:22:15;;;;;;;29.40;13.13;;;;;;;6.80;51.18;99298.25;4467101;32;20483;-81
2022/01/25 12:24:58;;;;;;;28.15;12.43;;;;;;;6.85;50.90;99299.06;4471767;32;20472;-81
2022/01/25 12:28:01;;;;;;;28.67;12.32;;;;;;;6.51;52.41;99301.03;4471868;32;20143;-80
2022/01/25 12:30:39;;;;;;;28.00;12.27;;;;;;;6.79;52.11;99292.25;4471678;32;20439;-82
2022/01/25 12:33:09;;;;;;;30.48;12.88;;;;;;;7.07;51.41;99287.75;4471375;32;20713;-81
2022/01/25 12:35:43;;;;;;;32.88;12.37;;;;;;;7.20;52.22;99296.19;4471368;32;20165;-80
2022/01/25 12:38:11;;;;;;;28.23;12.77;;;;;;;7.50;52.66;99303.59;4471449;32;20167;-83
2022/01/25 12:41:01;;;;;;;32.10;12.85;;;;;;;8.00;51.73;99303.91;4471217;32;20099;-82
2022/01/25 12:43:33;;;;;;;30.92;12.68;;;;;;;8.57;49.43;99304.88;4471515;32;20435;-82
2022/01/25 12:46:05;;;;;;;31.67;12.13;;;;;;;9.38;47.21;99302.72;4471259;32;20119;-82
2022/01/25 12:48:35;;;;;;;29.77;12.43;;;;;;;9.26;47.64;99308.94;4470185;32;20084;-85
2022/01/25 12:51:10;;;;;;;25.55;11.10;;;;;;;8.95;48.49;99306.87;4472239;32;20145;-82
2022/01/25 12:53:41;;;;;;;22.92;10.23;;;;;;;9.06;48.53;99300.69;4469592;32;20094;-85
2022/01/25 12:56:17;;;;;;;22.80;10.10;;;;;;;8.67;50.10;99303.00;4469475;32;20100;-85
2022/01/25 12:58:46;;;;;;;23.95;10.98;;;;;;;9.39;47.83;99305.25;4469693;32;20426;-85
2022/01/25 13:01:15;;;;;;;25.95;10.60;;;;;;;8.44;49.83;99293.06;4470642;32;20069;-85
2022/01/25 13:03:52;;;;;;;23.98;10.65;;;;;;;9.80;46.56;99299.31;4471735;32;20146;-85
2022/01/25 13:06:22;;;;;;;20.33;8.75;;;;;;;9.93;45.71;99281.88;4471878;32;20482;-87
2022/01/25 13:08:58;;;;;;;24.42;9.75;;;;;;;8.59;49.69;99274.81;4471640;32;20145;-88
2022/01/25 13:11:38;;;;;;;23.55;10.63;;;;;;;9.33;47.72;99277.03;4464515;32;181303;-87
2022/01/25 13:16:44;;;;;;;25.80;10.30;;;;;;;9.21;48.23;99269.50;4471443;32;20105;-86
2022/01/25 13:19:20;;;;;;;23.67;9.80;;;;;;;7.84;51.96;99256.97;4470269;32;20111;-88
2022/01/25 13:22:00;;;;;;;22.65;9.90;;;;;;;7.43;54.46;99254.87;4472623;32;20382;-88
2022/01/25 13:24:42;;;;;;;21.52;9.30;;;;;;;6.93;56.58;99262.25;4472837;32;20085;-89
2022/01/25 13:27:13;;;;;;;23.87;10.27;;;;;;;7.48;55.01;99269.41;4471637;32;20093;-89
2022/01/25 13:32:39;;;;;;;25.23;9.80;;;;;;;7.41;55.19;99261.75;4470990;32;20098;-88
2022/01/25 13:35:18;;;;;;;23.50;9.98;;;;;;;6.81;57.85;99269.19;4470686;32;20130;-87
2022/01/25 13:38:05;;;;;;;24.05;9.05;;;;;;;6.96;57.61;99259.63;4470890;32;20172;-88
2022/01/25 13:40:48;;;;;;;19.90;8.85;;;;;;;7.32;56.09;99251.59;4470958;32;20233;-86
2022/01/25 13:45:57;;;;;;;23.27;10.00;;;;;;;6.70;58.26;99253.87;4470730;32;20161;-87
2022/01/25 13:48:27;;;;;;;23.98;9.32;;;;;;;6.48;58.92;99245.47;4469690;32;20113;-87